sensor_id;sensor_type;location;lat;lon;timestamp;pressure;altitude;pressure_sealevel;temperature
16759;BMP280;8497;51.346;12.396;2024-03-02T00:02:06;99206.16;;;10.33
16759;BMP280;8497;51.346;12.396;2024-03-02T00:04:36;99196.84;;;10.31
16759;BMP280;8497;51.346;12.396;2024-03-02T00:07:07;99195.28;;;10.36
16759;BMP280;8497;51.346;12.396;2024-03-02T00:09:36;99203.72;;;10.36
16759;BMP280;8497;51.346;12.396;2024-03-02T00:12:06;99200.34;;;10.37
16759;BMP280;8497;51.346;12.396;2024-03-02T00:14:34;99205.31;;;10.34
16759;BMP280;8497;51.346;12.396;2024-03-02T00:17:03;99204.44;;;10.32
16759;BMP280;8497;51.346;12.396;2024-03-02T00:19:32;99201.91;;;10.32
16759;BMP280;8497;51.346;12.396;2024-03-02T00:22:03;99206.97;;;10.32
16759;BMP280;8497;51.346;12.396;2024-03-02T00:24:34;99206.97;;;10.32
16759;BMP280;8497;51.346;12.396;2024-03-02T00:27:05;99206.13;;;10.32
16759;BMP280;8497;51.346;12.396;2024-03-02T00:29:40;99197.66;;;10.30
16759;BMP280;8497;51.346;12.396;2024-03-02T00:32:13;99203.56;;;10.30
16759;BMP280;8497;51.346;12.396;2024-03-02T00:34:45;99198.44;;;10.27
16759;BMP280;8497;51.346;12.396;2024-03-02T00:37:15;99200.13;;;10.28
16759;BMP280;8497;51.346;12.396;2024-03-02T00:39:48;99194.38;;;10.32
16759;BMP280;8497;51.346;12.396;2024-03-02T00:42:17;99184.25;;;10.31
16759;BMP280;8497;51.346;12.396;2024-03-02T00:44:46;99179.19;;;10.29
16759;BMP280;8497;51.346;12.396;2024-03-02T00:47:15;99181.75;;;10.31
16759;BMP280;8497;51.346;12.396;2024-03-02T00:49:46;99174.06;;;10.26
16759;BMP280;8497;51.346;12.396;2024-03-02T00:52:18;99179.03;;;10.23
16759;BMP280;8497;51.346;12.396;2024-03-02T00:54:49;99171.31;;;10.17
16759;BMP280;8497;51.346;12.396;2024-03-02T00:57:18;99182.34;;;10.21
16759;BMP280;8497;51.346;12.396;2024-03-02T00:59:53;99184.81;;;10.19
16759;BMP280;8497;51.346;12.396;2024-03-02T01:02:21;99179.88;;;10.22
16759;BMP280;8497;51.346;12.396;2024-03-02T01:04:58;99185.88;;;10.27
16759;BMP280;8497;51.346;12.396;2024-03-02T01:07:31;99180.91;;;10.30
16759;BMP280;8497;51.346;12.396;2024-03-02T01:09:59;99185.94;;;10.30
16759;BMP280;8497;51.346;12.396;2024-03-02T01:12:28;99179.22;;;10.31
16759;BMP280;8497;51.346;12.396;2024-03-02T01:14:59;99176.75;;;10.32
16759;BMP280;8497;51.346;12.396;2024-03-02T01:17:27;99179.22;;;10.31
16759;BMP280;8497;51.346;12.396;2024-03-02T01:19:56;99171.66;;;10.31
16759;BMP280;8497;51.346;12.396;2024-03-02T01:22:25;99180.06;;;10.31
16759;BMP280;8497;51.346;12.396;2024-03-02T01:24:55;99180.97;;;10.33
16759;BMP280;8497;51.346;12.396;2024-03-02T01:27:23;99176.78;;;10.34
16759;BMP280;8497;51.346;12.396;2024-03-02T01:29:54;99180.97;;;10.33
16759;BMP280;8497;51.346;12.396;2024-03-02T01:32:23;99183.34;;;10.27
16759;BMP280;8497;51.346;12.396;2024-03-02T01:34:52;99182.28;;;10.18
16759;BMP280;8497;51.346;12.396;2024-03-02T01:37:20;99188.78;;;10.10
16759;BMP280;8497;51.346;12.396;2024-03-02T01:39:49;99184.53;;;10.07
16759;BMP280;8497;51.346;12.396;2024-03-02T01:42:19;99182.66;;;10.01
16759;BMP280;8497;51.346;12.396;2024-03-02T01:44:48;99177.63;;;10.01
16759;BMP280;8497;51.346;12.396;2024-03-02T01:47:17;99188.69;;;10.05
16759;BMP280;8497;51.346;12.396;2024-03-02T01:49:48;99173.53;;;10.04
16759;BMP280;8497;51.346;12.396;2024-03-02T01:52:17;99183.72;;;10.08
16759;BMP280;8497;51.346;12.396;2024-03-02T01:54:46;99177.13;;;10.13
16759;BMP280;8497;51.346;12.396;2024-03-02T01:57:15;99178.00;;;10.15
16759;BMP280;8497;51.346;12.396;2024-03-02T01:59:47;99174.69;;;10.16
16759;BMP280;8497;51.346;12.396;2024-03-02T02:02:16;99177.31;;;10.21
16759;BMP280;8497;51.346;12.396;2024-03-02T02:04:44;99169.75;;;10.21
16759;BMP280;8497;51.346;12.396;2024-03-02T02:07:13;99176.44;;;10.20
16759;BMP280;8497;51.346;12.396;2024-03-02T02:09:44;99183.19;;;10.21
16759;BMP280;8497;51.346;12.396;2024-03-02T02:12:12;99169.72;;;10.19
16759;BMP280;8497;51.346;12.396;2024-03-02T02:14:49;99183.25;;;10.24
16759;BMP280;8497;51.346;12.396;2024-03-02T02:17:18;99167.09;;;10.15
16759;BMP280;8497;51.346;12.396;2024-03-02T02:19:47;99171.25;;;10.13
16759;BMP280;8497;51.346;12.396;2024-03-02T02:22:17;99172.00;;;10.10
16759;BMP280;8497;51.346;12.396;2024-03-02T02:24:58;99157.72;;;10.09
16759;BMP280;8497;51.346;12.396;2024-03-02T02:27:29;99164.47;;;10.10
16759;BMP280;8497;51.346;12.396;2024-03-02T02:29:58;99169.56;;;10.13
16759;BMP280;8497;51.346;12.396;2024-03-02T02:32:28;99169.66;;;10.16
16759;BMP280;8497;51.346;12.396;2024-03-02T02:35:02;99174.84;;;10.22
16759;BMP280;8497;51.346;12.396;2024-03-02T02:37:35;99168.97;;;10.23
16759;BMP280;8497;51.346;12.396;2024-03-02T02:40:05;99164.00;;;10.26
16759;BMP280;8497;51.346;12.396;2024-03-02T02:42:40;99170.94;;;10.35
16759;BMP280;8497;51.346;12.396;2024-03-02T02:45:20;99165.97;;;10.38
16759;BMP280;8497;51.346;12.396;2024-03-02T02:47:57;99168.47;;;10.36
16759;BMP280;8497;51.346;12.396;2024-03-02T02:50:41;99164.94;;;10.31
16759;BMP280;8497;51.346;12.396;2024-03-02T02:53:14;99172.47;;;10.30
16759;BMP280;8497;51.346;12.396;2024-03-02T02:55:44;99174.94;;;10.28
16759;BMP280;8497;51.346;12.396;2024-03-02T02:58:13;99174.91;;;10.25
16759;BMP280;8497;51.346;12.396;2024-03-02T03:00:49;99163.88;;;10.22
16759;BMP280;8497;51.346;12.396;2024-03-02T03:03:37;99161.38;;;10.22
16759;BMP280;8497;51.346;12.396;2024-03-02T03:06:16;99162.25;;;10.22
16759;BMP280;8497;51.346;12.396;2024-03-02T03:09:10;99160.66;;;10.26
16759;BMP280;8497;51.346;12.396;2024-03-02T03:11:49;99161.34;;;10.20
16759;BMP280;8497;51.346;12.396;2024-03-02T03:14:20;99158.78;;;10.19
16759;BMP280;8497;51.346;12.396;2024-03-02T03:16:50;99158.81;;;10.20
16759;BMP280;8497;51.346;12.396;2024-03-02T03:19:28;99159.72;;;10.22
16759;BMP280;8497;51.346;12.396;2024-03-02T03:21:58;99163.09;;;10.23
16759;BMP280;8497;51.346;12.396;2024-03-02T03:24:31;99169.91;;;10.28
16759;BMP280;8497;51.346;12.396;2024-03-02T03:27:17;99168.28;;;10.29
16759;BMP280;8497;51.346;12.396;2024-03-02T03:30:07;99161.56;;;10.29
16759;BMP280;8497;51.346;12.396;2024-03-02T03:32:52;99173.28;;;10.27
16759;BMP280;8497;51.346;12.396;2024-03-02T03:35:54;99174.88;;;10.24
16759;BMP280;8497;51.346;12.396;2024-03-02T03:38:56;99176.56;;;10.25
16759;BMP280;8497;51.346;12.396;2024-03-02T03:41:44;99181.56;;;10.23
16759;BMP280;8497;51.346;12.396;2024-03-02T03:44:25;99182.44;;;10.24
16759;BMP280;8497;51.346;12.396;2024-03-02T03:47:00;99193.34;;;10.24
16759;BMP280;8497;51.346;12.396;2024-03-02T03:49:45;99181.56;;;10.23
16759;BMP280;8497;51.346;12.396;2024-03-02T03:52:18;99189.09;;;10.23
16759;BMP280;8497;51.346;12.396;2024-03-02T03:55:00;99193.25;;;10.21
16759;BMP280;8497;51.346;12.396;2024-03-02T03:57:32;99194.03;;;10.19
16759;BMP280;8497;51.346;12.396;2024-03-02T04:00:04;99193.94;;;10.16
16759;BMP280;8497;51.346;12.396;2024-03-02T04:02:33;99195.59;;;10.14
16759;BMP280;8497;51.346;12.396;2024-03-02T04:05:02;99195.44;;;10.08
16759;BMP280;8497;51.346;12.396;2024-03-02T04:07:36;99192.88;;;10.06
16759;BMP280;8497;51.346;12.396;2024-03-02T04:10:11;99187.81;;;10.05
16759;BMP280;8497;51.346;12.396;2024-03-02T04:12:41;99187.75;;;10.03
16759;BMP280;8497;51.346;12.396;2024-03-02T04:15:16;99187.75;;;10.03
16759;BMP280;8497;51.346;12.396;2024-03-02T04:18:04;99191.88;;;10.00
16759;BMP280;8497;51.346;12.396;2024-03-02T04:20:44;99191.00;;;9.98
16759;BMP280;8497;51.346;12.396;2024-03-02T04:23:14;99201.91;;;9.99
16759;BMP280;8497;51.346;12.396;2024-03-02T04:25:48;99196.75;;;9.94
16759;BMP280;8497;51.346;12.396;2024-03-02T04:28:21;99207.56;;;9.92
16759;BMP280;8497;51.346;12.396;2024-03-02T04:30:51;99205.78;;;9.88
16759;BMP280;8497;51.346;12.396;2024-03-02T04:33:20;99210.72;;;9.85
16759;BMP280;8497;51.346;12.396;2024-03-02T04:35:56;99212.28;;;9.80
16759;BMP280;8497;51.346;12.396;2024-03-02T04:38:43;99213.16;;;9.82
16759;BMP280;8497;51.346;12.396;2024-03-02T04:41:16;99211.47;;;9.81
16759;BMP280;8497;51.346;12.396;2024-03-02T04:43:59;99217.56;;;9.89
16759;BMP280;8497;51.346;12.396;2024-03-02T04:46:33;99214.28;;;9.93
16759;BMP280;8497;51.346;12.396;2024-03-02T04:49:16;99223.63;;;9.95
16759;BMP280;8497;51.346;12.396;2024-03-02T04:51:51;99229.50;;;9.96
16759;BMP280;8497;51.346;12.396;2024-03-02T04:54:36;99225.25;;;9.93
16759;BMP280;8497;51.346;12.396;2024-03-02T04:57:38;99226.31;;;10.01
16759;BMP280;8497;51.346;12.396;2024-03-02T05:00:24;99224.56;;;9.99
16759;BMP280;8497;51.346;12.396;2024-03-02T05:03:12;99226.09;;;9.94
16759;BMP280;8497;51.346;12.396;2024-03-02T05:05:51;99220.16;;;9.92
16759;BMP280;8497;51.346;12.396;2024-03-02T05:08:30;99221.16;;;9.97
16759;BMP280;8497;51.346;12.396;2024-03-02T05:11:14;99219.31;;;9.93
16759;BMP280;8497;51.346;12.396;2024-03-02T05:14:32;99223.59;;;9.94
16759;BMP280;8497;51.346;12.396;2024-03-02T05:17:12;99220.88;;;9.88
16759;BMP280;8497;51.346;12.396;2024-03-02T05:19:48;99232.66;;;9.89
16759;BMP280;8497;51.346;12.396;2024-03-02T05:22:18;99237.69;;;9.89
16759;BMP280;8497;51.346;12.396;2024-03-02T05:24:53;99233.47;;;9.88
16759;BMP280;8497;51.346;12.396;2024-03-02T05:27:22;99232.56;;;9.86
16759;BMP280;8497;51.346;12.396;2024-03-02T05:29:51;99232.50;;;9.83
16759;BMP280;8497;51.346;12.396;2024-03-02T05:32:21;99234.22;;;9.84
16759;BMP280;8497;51.346;12.396;2024-03-02T05:34:51;99242.72;;;9.89
16759;BMP280;8497;51.346;12.396;2024-03-02T05:37:25;99247.63;;;9.84
16759;BMP280;8497;51.346;12.396;2024-03-02T05:39:55;99239.13;;;9.79
16759;BMP280;8497;51.346;12.396;2024-03-02T05:42:31;99250.19;;;9.86
16759;BMP280;8497;51.346;12.396;2024-03-02T05:45:03;99244.19;;;9.81
16759;BMP280;8497;51.346;12.396;2024-03-02T05:47:35;99250.84;;;9.80
16759;BMP280;8497;51.346;12.396;2024-03-02T05:50:08;99245.88;;;9.82
16759;BMP280;8497;51.346;12.396;2024-03-02T05:52:53;99245.88;;;9.82
16759;BMP280;8497;51.346;12.396;2024-03-02T05:55:36;99263.59;;;9.86
16759;BMP280;8497;51.346;12.396;2024-03-02T05:58:05;99266.38;;;9.94
16759;BMP280;8497;51.346;12.396;2024-03-02T06:00:49;99258.03;;;9.95
16759;BMP280;8497;51.346;12.396;2024-03-02T06:03:27;99262.22;;;9.96
16759;BMP280;8497;51.346;12.396;2024-03-02T06:05:56;99262.22;;;9.96
16759;BMP280;8497;51.346;12.396;2024-03-02T06:08:24;99268.16;;;9.98
16759;BMP280;8497;51.346;12.396;2024-03-02T06:10:53;99267.28;;;9.97
16759;BMP280;8497;51.346;12.396;2024-03-02T06:13:23;99276.47;;;9.95
16759;BMP280;8497;51.346;12.396;2024-03-02T06:15:52;99274.09;;;10.00
16759;BMP280;8497;51.346;12.396;2024-03-02T06:18:23;99284.19;;;10.01
16759;BMP280;8497;51.346;12.396;2024-03-02T06:20:51;99286.84;;;10.05
16759;BMP280;8497;51.346;12.396;2024-03-02T06:23:20;99287.72;;;10.07
16759;BMP280;8497;51.346;12.396;2024-03-02T06:25:48;99291.03;;;10.06
16759;BMP280;8497;51.346;12.396;2024-03-02T06:28:17;99291.06;;;10.08
16759;BMP280;8497;51.346;12.396;2024-03-02T06:30:47;99290.22;;;10.07
16759;BMP280;8497;51.346;12.396;2024-03-02T06:33:16;99285.97;;;10.05
16759;BMP280;8497;51.346;12.396;2024-03-02T06:35:46;99286.88;;;10.07
16759;BMP280;8497;51.346;12.396;2024-03-02T06:38:16;99288.59;;;10.09
16759;BMP280;8497;51.346;12.396;2024-03-02T06:40:44;99278.75;;;10.17
16759;BMP280;8497;51.346;12.396;2024-03-02T06:43:13;99280.44;;;10.18
16759;BMP280;8497;51.346;12.396;2024-03-02T06:45:42;99279.84;;;10.28
16759;BMP280;8497;51.346;12.396;2024-03-02T06:48:11;99277.66;;;10.40
16759;BMP280;8497;51.346;12.396;2024-03-02T06:50:39;99287.94;;;10.47
16759;BMP280;8497;51.346;12.396;2024-03-02T06:53:09;99286.28;;;10.49
16759;BMP280;8497;51.346;12.396;2024-03-02T06:55:38;99277.13;;;10.52
16759;BMP280;8497;51.346;12.396;2024-03-02T06:58:07;99279.78;;;10.57
16759;BMP280;8497;51.346;12.396;2024-03-02T07:00:38;99281.56;;;10.61
16759;BMP280;8497;51.346;12.396;2024-03-02T07:03:11;99283.31;;;10.65
16759;BMP280;8497;51.346;12.396;2024-03-02T07:05:40;99278.34;;;10.68
16759;BMP280;8497;51.346;12.396;2024-03-02T07:08:12;99286.00;;;10.71
16759;BMP280;8497;51.346;12.396;2024-03-02T07:10:40;99278.66;;;10.80
16759;BMP280;8497;51.346;12.396;2024-03-02T07:13:11;99280.41;;;10.84
16759;BMP280;8497;51.346;12.396;2024-03-02T07:15:40;99289.84;;;10.91
16759;BMP280;8497;51.346;12.396;2024-03-02T07:18:22;99289.91;;;10.94
16759;BMP280;8497;51.346;12.396;2024-03-02T07:20:50;99288.09;;;10.88
16759;BMP280;8497;51.346;12.396;2024-03-02T07:23:20;99290.56;;;10.87
16759;BMP280;8497;51.346;12.396;2024-03-02T07:25:51;99283.84;;;10.86
16759;BMP280;8497;51.346;12.396;2024-03-02T07:28:24;99296.47;;;10.87
16759;BMP280;8497;51.346;12.396;2024-03-02T07:30:58;99295.59;;;10.87
16759;BMP280;8497;51.346;12.396;2024-03-02T07:33:30;99304.00;;;10.86
16759;BMP280;8497;51.346;12.396;2024-03-02T07:36:00;99300.66;;;10.87
16759;BMP280;8497;51.346;12.396;2024-03-02T07:38:32;99301.59;;;10.90
16759;BMP280;8497;51.346;12.396;2024-03-02T07:41:02;99303.34;;;10.94
16759;BMP280;8497;51.346;12.396;2024-03-02T07:43:32;99309.28;;;10.95
16759;BMP280;8497;51.346;12.396;2024-03-02T07:46:01;99306.81;;;10.99
16759;BMP280;8497;51.346;12.396;2024-03-02T07:48:31;99313.63;;;11.01
16759;BMP280;8497;51.346;12.396;2024-03-02T07:50:59;99314.41;;;11.00
16759;BMP280;8497;51.346;12.396;2024-03-02T07:53:29;99318.66;;;11.01
16759;BMP280;8497;51.346;12.396;2024-03-02T07:55:59;99326.28;;;11.04
16759;BMP280;8497;51.346;12.396;2024-03-02T07:58:30;99319.59;;;11.06
16759;BMP280;8497;51.346;12.396;2024-03-02T08:01:15;99317.94;;;11.05
16759;BMP280;8497;51.346;12.396;2024-03-02T08:03:45;99323.75;;;11.03
16759;BMP280;8497;51.346;12.396;2024-03-02T08:06:15;99321.16;;;11.00
16759;BMP280;8497;51.346;12.396;2024-03-02T08:08:44;99323.75;;;11.03
16759;BMP280;8497;51.346;12.396;2024-03-02T08:11:14;99324.69;;;11.08
16759;BMP280;8497;51.346;12.396;2024-03-02T08:13:43;99325.63;;;11.13
16759;BMP280;8497;51.346;12.396;2024-03-02T08:16:11;99329.22;;;11.21
16759;BMP280;8497;51.346;12.396;2024-03-02T08:18:40;99331.13;;;11.31
16759;BMP280;8497;51.346;12.396;2024-03-02T08:21:09;99321.25;;;11.41
16759;BMP280;8497;51.346;12.396;2024-03-02T08:23:38;99326.41;;;11.45
16759;BMP280;8497;51.346;12.396;2024-03-02T08:26:10;99322.31;;;11.49
16759;BMP280;8497;51.346;12.396;2024-03-02T08:28:42;99315.75;;;11.57
16759;BMP280;8497;51.346;12.396;2024-03-02T08:31:11;99324.38;;;11.68
16759;BMP280;8497;51.346;12.396;2024-03-02T08:33:39;99322.84;;;11.74
16759;BMP280;8497;51.346;12.396;2024-03-02T08:36:09;99326.34;;;11.81
16759;BMP280;8497;51.346;12.396;2024-03-02T08:38:38;99334.00;;;11.85
16759;BMP280;8497;51.346;12.396;2024-03-02T08:41:07;99337.47;;;11.88
16759;BMP280;8497;51.346;12.396;2024-03-02T08:43:36;99340.00;;;11.88
16759;BMP280;8497;51.346;12.396;2024-03-02T08:46:06;99345.03;;;11.88
16759;BMP280;8497;51.346;12.396;2024-03-02T08:48:35;99341.69;;;11.89
16759;BMP280;8497;51.346;12.396;2024-03-02T08:51:04;99342.59;;;11.94
16759;BMP280;8497;51.346;12.396;2024-03-02T08:53:35;99342.63;;;11.96
16759;BMP280;8497;51.346;12.396;2024-03-02T08:56:04;99344.38;;;11.98
16759;BMP280;8497;51.346;12.396;2024-03-02T08:58:33;99339.59;;;12.10
16759;BMP280;8497;51.346;12.396;2024-03-02T09:01:02;99339.84;;;12.25
16759;BMP280;8497;51.346;12.396;2024-03-02T09:03:35;99344.28;;;12.35
16759;BMP280;8497;51.346;12.396;2024-03-02T09:06:05;99346.13;;;12.45
16759;BMP280;8497;51.346;12.396;2024-03-02T09:08:33;99348.09;;;12.59
16759;BMP280;8497;51.346;12.396;2024-03-02T09:11:04;99349.16;;;12.72
16759;BMP280;8497;51.346;12.396;2024-03-02T09:13:33;99351.19;;;12.90
16759;BMP280;8497;51.346;12.396;2024-03-02T09:16:02;99353.06;;;13.03
16759;BMP280;8497;51.346;12.396;2024-03-02T09:18:33;99348.09;;;13.08
16759;BMP280;8497;51.346;12.396;2024-03-02T09:21:04;99351.63;;;13.19
16759;BMP280;8497;51.346;12.396;2024-03-02T09:23:33;99353.22;;;13.11
16759;BMP280;8497;51.346;12.396;2024-03-02T09:26:02;99357.44;;;13.10
16759;BMP280;8497;51.346;12.396;2024-03-02T09:28:31;99360.22;;;13.28
16759;BMP280;8497;51.346;12.396;2024-03-02T09:31:01;99363.72;;;13.37
16759;BMP280;8497;51.346;12.396;2024-03-02T09:33:37;99367.25;;;13.47
16759;BMP280;8497;51.346;12.396;2024-03-02T09:36:16;99365.47;;;13.40
16759;BMP280;8497;51.346;12.396;2024-03-02T09:38:47;99367.25;;;13.48
16759;BMP280;8497;51.346;12.396;2024-03-02T09:41:16;99357.31;;;13.60
16759;BMP280;8497;51.346;12.396;2024-03-02T09:43:45;99362.44;;;13.65
16759;BMP280;8497;51.346;12.396;2024-03-02T09:46:15;99368.22;;;13.56
16759;BMP280;8497;51.346;12.396;2024-03-02T09:48:45;99375.03;;;13.59
16759;BMP280;8497;51.346;12.396;2024-03-02T09:51:15;99372.41;;;13.53
16759;BMP280;8497;51.346;12.396;2024-03-02T09:53:47;99372.38;;;13.51
16759;BMP280;8497;51.346;12.396;2024-03-02T09:56:16;99373.16;;;13.46
16759;BMP280;8497;51.346;12.396;2024-03-02T09:58:46;99366.13;;;13.28
16759;BMP280;8497;51.346;12.396;2024-03-02T10:01:15;99375.28;;;13.21
16759;BMP280;8497;51.346;12.396;2024-03-02T10:03:47;99369.38;;;13.20
16759;BMP280;8497;51.346;12.396;2024-03-02T10:06:20;99376.16;;;13.21
16759;BMP280;8497;51.346;12.396;2024-03-02T10:08:48;99364.25;;;13.17
16759;BMP280;8497;51.346;12.396;2024-03-02T10:11:27;99365.28;;;13.28
16759;BMP280;8497;51.346;12.396;2024-03-02T10:14:06;99362.97;;;13.41
16759;BMP280;8497;51.346;12.396;2024-03-02T10:16:37;99369.81;;;13.50
16759;BMP280;8497;51.346;12.396;2024-03-02T10:19:20;99360.09;;;13.76
16759;BMP280;8497;51.346;12.396;2024-03-02T10:21:52;99358.78;;;14.05
16759;BMP280;8497;51.346;12.396;2024-03-02T10:24:38;99353.16;;;14.30
16759;BMP280;8497;51.346;12.396;2024-03-02T10:27:29;99354.31;;;14.59
16759;BMP280;8497;51.346;12.396;2024-03-02T10:30:06;99344.44;;;14.87
16759;BMP280;8497;51.346;12.396;2024-03-02T10:32:35;99348.88;;;15.11
16759;BMP280;8497;51.346;12.396;2024-03-02T10:35:06;99342.97;;;15.14
16759;BMP280;8497;51.346;12.396;2024-03-02T10:37:35;99346.44;;;15.20
16759;BMP280;8497;51.346;12.396;2024-03-02T10:40:05;99338.00;;;15.23
16759;BMP280;8497;51.346;12.396;2024-03-02T10:42:41;99344.81;;;15.30
16759;BMP280;8497;51.346;12.396;2024-03-02T10:45:12;99335.47;;;15.23
16759;BMP280;8497;51.346;12.396;2024-03-02T10:47:43;99328.00;;;15.47
16759;BMP280;8497;51.346;12.396;2024-03-02T10:50:13;99325.59;;;15.76
16759;BMP280;8497;51.346;12.396;2024-03-02T10:52:42;99324.91;;;16.07
16759;BMP280;8497;51.346;12.396;2024-03-02T10:55:12;99323.31;;;16.30
16759;BMP280;8497;51.346;12.396;2024-03-02T10:57:48;99322.50;;;16.34
16759;BMP280;8497;51.346;12.396;2024-03-02T11:00:19;99319.84;;;16.17
16759;BMP280;8497;51.346;12.396;2024-03-02T11:02:56;99316.44;;;16.11
16759;BMP280;8497;51.346;12.396;2024-03-02T11:05:32;99313.06;;;16.18
16759;BMP280;8497;51.346;12.396;2024-03-02T11:08:06;99305.50;;;16.22
16759;BMP280;8497;51.346;12.396;2024-03-02T11:10:38;99304.69;;;16.28
16759;BMP280;8497;51.346;12.396;2024-03-02T11:13:11;99300.47;;;16.39
16759;BMP280;8497;51.346;12.396;2024-03-02T11:15:43;99303.00;;;16.59
16759;BMP280;8497;51.346;12.396;2024-03-02T11:18:13;99305.59;;;16.73
16759;BMP280;8497;51.346;12.396;2024-03-02T11:20:48;99303.06;;;16.85
16759;BMP280;8497;51.346;12.396;2024-03-02T11:23:17;99306.44;;;16.88
16759;BMP280;8497;51.346;12.396;2024-03-02T11:25:46;99306.44;;;16.93
16759;BMP280;8497;51.346;12.396;2024-03-02T11:28:14;99303.03;;;17.04
16759;BMP280;8497;51.346;12.396;2024-03-02T11:30:50;99301.31;;;17.15
16759;BMP280;8497;51.346;12.396;2024-03-02T11:33:27;99298.78;;;17.15
16759;BMP280;8497;51.346;12.396;2024-03-02T11:36:01;99298.81;;;17.01
16759;BMP280;8497;51.346;12.396;2024-03-02T11:38:31;99298.81;;;16.93
16759;BMP280;8497;51.346;12.396;2024-03-02T11:41:02;99288.63;;;16.93
16759;BMP280;8497;51.346;12.396;2024-03-02T11:43:31;99290.28;;;17.08
16759;BMP280;8497;51.346;12.396;2024-03-02T11:46:03;99289.50;;;17.23
16759;BMP280;8497;51.346;12.396;2024-03-02T11:48:36;99286.06;;;17.33
16759;BMP280;8497;51.346;12.396;2024-03-02T11:51:06;99284.34;;;17.43
16759;BMP280;8497;51.346;12.396;2024-03-02T11:53:39;99287.72;;;17.48
16759;BMP280;8497;51.346;12.396;2024-03-02T11:56:09;99284.34;;;17.38
16759;BMP280;8497;51.346;12.396;2024-03-02T11:58:41;99289.44;;;17.32
16759;BMP280;8497;51.346;12.396;2024-03-02T12:01:11;99286.88;;;17.36
16759;BMP280;8497;51.346;12.396;2024-03-02T12:03:41;99292.00;;;17.27
16759;BMP280;8497;51.346;12.396;2024-03-02T12:06:11;99286.06;;;17.37
16759;BMP280;8497;51.346;12.396;2024-03-02T12:08:41;99280.06;;;17.54
16759;BMP280;8497;51.346;12.396;2024-03-02T12:11:14;99274.03;;;17.76
16759;BMP280;8497;51.346;12.396;2024-03-02T12:13:52;99276.53;;;17.84
16759;BMP280;8497;51.346;12.396;2024-03-02T12:16:24;99275.72;;;17.83
16759;BMP280;8497;51.346;12.396;2024-03-02T12:18:54;99266.38;;;17.81
16759;BMP280;8497;51.346;12.396;2024-03-02T12:21:26;99265.56;;;17.70
16759;BMP280;8497;51.346;12.396;2024-03-02T12:23:59;99258.75;;;17.67
16759;BMP280;8497;51.346;12.396;2024-03-02T12:26:29;99263.06;;;17.56
16759;BMP280;8497;51.346;12.396;2024-03-02T12:28:58;99256.34;;;17.32
16759;BMP280;8497;51.346;12.396;2024-03-02T12:31:27;99255.50;;;17.31
16759;BMP280;8497;51.346;12.396;2024-03-02T12:33:55;99243.66;;;17.23
16759;BMP280;8497;51.346;12.396;2024-03-02T12:36:26;99249.59;;;17.25
16759;BMP280;8497;51.346;12.396;2024-03-02T12:38:55;99261.47;;;17.23
16759;BMP280;8497;51.346;12.396;2024-03-02T12:41:24;99263.16;;;17.27
16759;BMP280;8497;51.346;12.396;2024-03-02T12:43:55;99258.84;;;17.48
16759;BMP280;8497;51.346;12.396;2024-03-02T12:46:24;99263.53;;;18.40
16759;BMP280;8497;51.346;12.396;2024-03-02T12:48:53;99252.44;;;19.39
16759;BMP280;8497;51.346;12.396;2024-03-02T12:51:22;99249.34;;;19.82
16759;BMP280;8497;51.346;12.396;2024-03-02T12:53:55;99244.69;;;19.47
16759;BMP280;8497;51.346;12.396;2024-03-02T12:56:25;99236.66;;;18.97
16759;BMP280;8497;51.346;12.396;2024-03-02T12:58:54;99237.84;;;18.61
16759;BMP280;8497;51.346;12.396;2024-03-02T13:01:23;99236.28;;;18.42
16759;BMP280;8497;51.346;12.396;2024-03-02T13:03:53;99240.75;;;18.06
16759;BMP280;8497;51.346;12.396;2024-03-02T13:06:26;99246.81;;;17.81
16759;BMP280;8497;51.346;12.396;2024-03-02T13:08:57;99243.44;;;17.79
16759;BMP280;8497;51.346;12.396;2024-03-02T13:11:26;99227.28;;;17.86
16759;BMP280;8497;51.346;12.396;2024-03-02T13:13:55;99229.78;;;17.92
16759;BMP280;8497;51.346;12.396;2024-03-02T13:16:23;99217.84;;;18.03
16759;BMP280;8497;51.346;12.396;2024-03-02T13:19:00;99224.59;;;18.04
16759;BMP280;8497;51.346;12.396;2024-03-02T13:21:29;99220.41;;;17.95
16759;BMP280;8497;51.346;12.396;2024-03-02T13:24:00;99211.97;;;17.92
16759;BMP280;8497;51.346;12.396;2024-03-02T13:26:29;99218.72;;;17.97
16759;BMP280;8497;51.346;12.396;2024-03-02T13:28:58;99211.06;;;17.99
16759;BMP280;8497;51.346;12.396;2024-03-02T13:31:26;99216.09;;;18.06
16759;BMP280;8497;51.346;12.396;2024-03-02T13:33:55;99216.00;;;18.26
16759;BMP280;8497;51.346;12.396;2024-03-02T13:36:23;99216.00;;;18.26
16759;BMP280;8497;51.346;12.396;2024-03-02T13:38:52;99216.16;;;17.99
16759;BMP280;8497;51.346;12.396;2024-03-02T13:41:22;99225.63;;;17.75
16759;BMP280;8497;51.346;12.396;2024-03-02T13:43:51;99220.50;;;17.82
16759;BMP280;8497;51.346;12.396;2024-03-02T13:46:20;99214.50;;;17.92
16759;BMP280;8497;51.346;12.396;2024-03-02T13:48:49;99221.31;;;17.81
16759;BMP280;8497;51.346;12.396;2024-03-02T13:51:18;99215.41;;;17.75
16759;BMP280;8497;51.346;12.396;2024-03-02T13:53:47;99215.44;;;17.69
16759;BMP280;8497;51.346;12.396;2024-03-02T13:56:16;99220.50;;;17.82
16759;BMP280;8497;51.346;12.396;2024-03-02T13:58:46;99218.84;;;17.71
16759;BMP280;8497;51.346;12.396;2024-03-02T14:01:16;99221.41;;;17.69
16759;BMP280;8497;51.346;12.396;2024-03-02T14:03:45;99212.88;;;17.70
16759;BMP280;8497;51.346;12.396;2024-03-02T14:06:14;99220.63;;;17.52
16759;BMP280;8497;51.346;12.396;2024-03-02T14:08:43;99224.97;;;17.24
16759;BMP280;8497;51.346;12.396;2024-03-02T14:11:14;99206.28;;;17.10
16759;BMP280;8497;51.346;12.396;2024-03-02T14:13:46;99208.91;;;16.96
16759;BMP280;8497;51.346;12.396;2024-03-02T14:16:21;99219.09;;;16.79
16759;BMP280;8497;51.346;12.396;2024-03-02T14:18:49;99210.56;;;16.87
16759;BMP280;8497;51.346;12.396;2024-03-02T14:21:19;99208.91;;;16.89
16759;BMP280;8497;51.346;12.396;2024-03-02T14:23:50;99200.38;;;16.97
16759;BMP280;8497;51.346;12.396;2024-03-02T14:26:33;99198.66;;;17.11
16759;BMP280;8497;51.346;12.396;2024-03-02T14:29:03;99196.09;;;17.16
16759;BMP280;8497;51.346;12.396;2024-03-02T14:31:32;99195.28;;;17.05
16759;BMP280;8497;51.346;12.396;2024-03-02T14:34:01;99193.56;;;17.04
16759;BMP280;8497;51.346;12.396;2024-03-02T14:36:30;99191.03;;;17.05
16759;BMP280;8497;51.346;12.396;2024-03-02T14:39:00;99195.25;;;17.17
16759;BMP280;8497;51.346;12.396;2024-03-02T14:41:29;99188.47;;;17.14